Achilleas — SYLL — position and weather

sailwx.info

Track history (hours):
 
Tides and Currents Weather Stations Pressure Air Temp Water Temp Dewpoint Dewpoint Depression Visibility Wind Speed Wind Dir Waves Ship Positions

Achilleas

Last reported at 2017-Oct-22 17:15 UTC. Time now 2017-Nov-21 10:20 UTC.
Position N 38°47' E 024°27'.
Warning: this ship's position is 29 days out of date.

Length 95 m; draft 4 m.

Type: Passenger vessel. MMSI: 240184000.

Date/timePositionNaut miles runAvg speedWind from/ knotsBaromVisibWave heightAir tempDewpointWater temp
2017-Oct-22 17:15N 38°47' E 024°27'415.4
2017-Oct-22 17:00N 38°45' E 024°23'815.5
2017-Oct-22 16:30N 38°41' E 024°15'1 0.5
2017-Oct-22 14:10N 38°40' E 024°13'316.0
2017-Oct-22 13:58N 38°42' E 024°17'715.9
2017-Oct-22 13:30N 38°45' E 024°25'4 0.2
2017-Oct-21 16:24N 38°47' E 024°29'615.1
2017-Oct-21 16:00N 38°44' E 024°22'5 0.5
2017-Oct-21 05:58N 38°42' E 024°17'10 0.8
2017-Oct-20 17:16N 38°46' E 024°27'414.9
2017-Oct-20 17:00N 38°44' E 024°23'6 2.0
2017-Oct-20 13:59N 38°42' E 024°16'816.0
2017-Oct-20 13:30N 38°45' E 024°25'3 0.1
2017-Oct-19 16:29N 38°47' E 024°28'715.3
2017-Oct-19 16:01N 38°43' E 024°20'  
2017-Oct-16 04:42N 38°44' E 024°22'415.8
2017-Oct-16 04:26N 38°46' E 024°26'  
Track history (hours):
 
Tides and Currents Weather Stations Pressure Air Temp Water Temp Dewpoint Dewpoint Depression Visibility Wind Speed Wind Dir Waves Ship Positions

Achilleas

Last reported at 2017-Oct-22 17:15 UTC. Time now 2017-Nov-21 10:20 UTC.
Position N 38°47' E 024°27'.
Warning: this ship's position is 29 days out of date.

Length 95 m; draft 4 m.

Type: Passenger vessel. MMSI: 240184000.

Date/timePositionNaut miles runAvg speedWind from/ knotsBaromVisibWave heightAir tempDewpointWater temp
2017-Oct-22 17:15N 38°47' E 024°27'415.4
2017-Oct-22 17:00N 38°45' E 024°23'815.5
2017-Oct-22 16:30N 38°41' E 024°15'1 0.5
2017-Oct-22 14:10N 38°40' E 024°13'316.0
2017-Oct-22 13:58N 38°42' E 024°17'715.9
2017-Oct-22 13:30N 38°45' E 024°25'4 0.2
2017-Oct-21 16:24N 38°47' E 024°29'615.1
2017-Oct-21 16:00N 38°44' E 024°22'5 0.5
2017-Oct-21 05:58N 38°42' E 024°17'10 0.8
2017-Oct-20 17:16N 38°46' E 024°27'414.9
2017-Oct-20 17:00N 38°44' E 024°23'6 2.0
2017-Oct-20 13:59N 38°42' E 024°16'816.0
2017-Oct-20 13:30N 38°45' E 024°25'3 0.1
2017-Oct-19 16:29N 38°47' E 024°28'715.3
2017-Oct-19 16:01N 38°43' E 024°20'  
2017-Oct-16 04:42N 38°44' E 024°22'415.8
2017-Oct-16 04:26N 38°46' E 024°26'  

Dump ship's entire track history